sensor_id;sensor_type;location;lat;lon;timestamp;pressure;altitude;pressure_sealevel;temperature;humidity
84914;BME280;75177;43.832;5.974;2024-02-04T00:01:18;96077.81;;;11.60;71.46
84914;BME280;75177;43.832;5.974;2024-02-04T00:03:44;96077.13;;;11.58;72.03
84914;BME280;75177;43.832;5.974;2024-02-04T00:06:09;96072.41;;;11.52;72.10
84914;BME280;75177;43.832;5.974;2024-02-04T00:08:35;96068.41;;;11.56;72.07
84914;BME280;75177;43.832;5.974;2024-02-04T00:11:02;96060.03;;;11.51;72.54
84914;BME280;75177;43.832;5.974;2024-02-04T00:13:30;96061.69;;;11.52;72.44
84914;BME280;75177;43.832;5.974;2024-02-04T00:15:55;96042.41;;;11.40;72.41
84914;BME280;75177;43.832;5.974;2024-02-04T00:18:23;96051.63;;;11.46;71.94
84914;BME280;75177;43.832;5.974;2024-02-04T00:20:48;96042.44;;;11.30;72.33
84914;BME280;75177;43.832;5.974;2024-02-04T00:23:14;96047.28;;;11.27;71.84
84914;BME280;75177;43.832;5.974;2024-02-04T00:25:39;96042.03;;;11.17;71.94
84914;BME280;75177;43.832;5.974;2024-02-04T00:28:06;96043.16;;;11.15;72.13
84914;BME280;75177;43.832;5.974;2024-02-04T00:30:32;96032.16;;;11.00;72.74
84914;BME280;75177;43.832;5.974;2024-02-04T00:32:57;96028.09;;;10.96;73.12
84914;BME280;75177;43.832;5.974;2024-02-04T00:35:28;96031.47;;;10.98;73.44
84914;BME280;75177;43.832;5.974;2024-02-04T00:37:53;96031.22;;;11.09;73.32
84914;BME280;75177;43.832;5.974;2024-02-04T00:40:19;96029.41;;;10.92;74.08
84914;BME280;75177;43.832;5.974;2024-02-04T00:42:44;96032.88;;;10.93;74.26
84914;BME280;75177;43.832;5.974;2024-02-04T00:45:10;96028.63;;;11.00;74.06
84914;BME280;75177;43.832;5.974;2024-02-04T00:47:36;96003.38;;;10.94;74.40
84914;BME280;75177;43.832;5.974;2024-02-04T00:50:01;96027.78;;;10.99;74.66
84914;BME280;75177;43.832;5.974;2024-02-04T00:52:27;96017.09;;;10.99;73.13
84914;BME280;75177;43.832;5.974;2024-02-04T00:54:52;96021.06;;;10.95;72.69
84914;BME280;75177;43.832;5.974;2024-02-04T00:57:17;96018.78;;;11.00;72.20
84914;BME280;75177;43.832;5.974;2024-02-04T00:59:43;96025.44;;;10.96;72.24
84914;BME280;75177;43.832;5.974;2024-02-04T01:02:08;96024.78;;;10.85;72.52
84914;BME280;75177;43.832;5.974;2024-02-04T01:04:34;96024.25;;;10.81;72.49
84914;BME280;75177;43.832;5.974;2024-02-04T01:06:59;96026.50;;;10.86;72.94
84914;BME280;75177;43.832;5.974;2024-02-04T01:09:24;96032.59;;;10.96;73.43
84914;BME280;75177;43.832;5.974;2024-02-04T01:11:50;96013.28;;;10.84;73.57
84914;BME280;75177;43.832;5.974;2024-02-04T01:14:16;96040.38;;;10.89;73.42
84914;BME280;75177;43.832;5.974;2024-02-04T01:16:41;96029.84;;;10.88;73.68
84914;BME280;75177;43.832;5.974;2024-02-04T01:19:06;96034.94;;;10.81;73.45
84914;BME280;75177;43.832;5.974;2024-02-04T01:21:32;96032.19;;;10.73;73.33
84914;BME280;75177;43.832;5.974;2024-02-04T01:23:57;96032.47;;;10.70;73.19
84914;BME280;75177;43.832;5.974;2024-02-04T01:26:22;96029.53;;;10.73;72.38
84914;BME280;75177;43.832;5.974;2024-02-04T01:28:49;96033.69;;;10.58;72.46
84914;BME280;75177;43.832;5.974;2024-02-04T01:31:14;96027.41;;;10.49;72.58
84914;BME280;75177;43.832;5.974;2024-02-04T01:33:40;96029.53;;;10.46;72.61
84914;BME280;75177;43.832;5.974;2024-02-04T01:36:06;96038.50;;;10.45;72.23
84914;BME280;75177;43.832;5.974;2024-02-04T01:38:31;96020.47;;;10.29;72.06
84914;BME280;75177;43.832;5.974;2024-02-04T01:40:57;96029.34;;;10.20;72.23
84914;BME280;75177;43.832;5.974;2024-02-04T01:43:23;96033.63;;;10.13;72.80
84914;BME280;75177;43.832;5.974;2024-02-04T01:45:50;96026.28;;;10.06;72.72
84914;BME280;75177;43.832;5.974;2024-02-04T01:48:16;96034.75;;;10.11;73.36
84914;BME280;75177;43.832;5.974;2024-02-04T01:50:43;96032.94;;;10.11;73.26
84914;BME280;75177;43.832;5.974;2024-02-04T01:53:09;96034.75;;;10.11;73.30
84914;BME280;75177;43.832;5.974;2024-02-04T01:55:36;96031.41;;;9.99;73.57
84914;BME280;75177;43.832;5.974;2024-02-04T01:58:02;96013.97;;;9.95;73.86
84914;BME280;75177;43.832;5.974;2024-02-04T02:00:27;96023.13;;;9.93;73.98
84914;BME280;75177;43.832;5.974;2024-02-04T02:02:55;96024.66;;;9.95;73.99
84914;BME280;75177;43.832;5.974;2024-02-04T02:05:21;96018.66;;;9.84;74.28
84914;BME280;75177;43.832;5.974;2024-02-04T02:07:47;96000.03;;;9.64;74.78
84914;BME280;75177;43.832;5.974;2024-02-04T02:10:16;96001.16;;;9.71;75.01
84914;BME280;75177;43.832;5.974;2024-02-04T02:15:29;96002.19;;;9.98;74.82
84914;BME280;75177;43.832;5.974;2024-02-04T02:18:10;96006.66;;;10.07;74.40
84914;BME280;75177;43.832;5.974;2024-02-04T02:23:22;95973.59;;;9.81;73.76
84914;BME280;75177;43.832;5.974;2024-02-04T02:25:48;95998.16;;;9.84;73.72
84914;BME280;75177;43.832;5.974;2024-02-04T02:28:14;96007.88;;;9.76;73.83
84914;BME280;75177;43.832;5.974;2024-02-04T02:30:40;95986.84;;;9.63;74.12
84914;BME280;75177;43.832;5.974;2024-02-04T02:33:05;95996.41;;;9.65;73.44
84914;BME280;75177;43.832;5.974;2024-02-04T02:35:33;96001.72;;;9.65;73.45
84914;BME280;75177;43.832;5.974;2024-02-04T02:40:44;96000.75;;;9.57;73.20
84914;BME280;75177;43.832;5.974;2024-02-04T02:43:11;95999.53;;;9.51;73.39
84914;BME280;75177;43.832;5.974;2024-02-04T02:45:41;95993.47;;;9.49;73.70
84914;BME280;75177;43.832;5.974;2024-02-04T02:48:08;95983.81;;;9.48;73.85
84914;BME280;75177;43.832;5.974;2024-02-04T02:50:36;95956.59;;;9.45;73.66
84914;BME280;75177;43.832;5.974;2024-02-04T02:53:02;95972.88;;;9.51;73.87
84914;BME280;75177;43.832;5.974;2024-02-04T02:55:27;95974.69;;;9.41;74.15
84914;BME280;75177;43.832;5.974;2024-02-04T02:57:52;95973.28;;;9.37;74.25
84914;BME280;75177;43.832;5.974;2024-02-04T03:00:18;95980.59;;;9.35;74.02
84914;BME280;75177;43.832;5.974;2024-02-04T03:02:44;95971.50;;;9.28;74.42
84914;BME280;75177;43.832;5.974;2024-02-04T03:05:09;95969.97;;;9.16;74.60
84914;BME280;75177;43.832;5.974;2024-02-04T03:07:37;95970.69;;;9.18;74.75
84914;BME280;75177;43.832;5.974;2024-02-04T03:10:02;95973.03;;;9.40;74.36
84914;BME280;75177;43.832;5.974;2024-02-04T03:12:28;95959.28;;;9.35;73.74
84914;BME280;75177;43.832;5.974;2024-02-04T03:14:53;95964.59;;;9.45;73.91
84914;BME280;75177;43.832;5.974;2024-02-04T03:17:18;95967.81;;;9.48;73.91
84914;BME280;75177;43.832;5.974;2024-02-04T03:19:47;95966.69;;;9.51;73.86
84914;BME280;75177;43.832;5.974;2024-02-04T03:22:13;95967.25;;;9.54;73.95
84914;BME280;75177;43.832;5.974;2024-02-04T03:24:38;95942.81;;;9.49;74.16
84914;BME280;75177;43.832;5.974;2024-02-04T03:27:03;95952.66;;;9.49;74.21
84914;BME280;75177;43.832;5.974;2024-02-04T03:29:29;95947.06;;;9.42;74.12
84914;BME280;75177;43.832;5.974;2024-02-04T03:31:55;95946.53;;;9.29;74.35
84914;BME280;75177;43.832;5.974;2024-02-04T03:34:21;95954.41;;;9.21;73.80
84914;BME280;75177;43.832;5.974;2024-02-04T03:36:46;95929.47;;;9.03;74.30
84914;BME280;75177;43.832;5.974;2024-02-04T03:39:12;95954.78;;;9.36;74.37
84914;BME280;75177;43.832;5.974;2024-02-04T03:41:37;95947.91;;;9.33;74.73
84914;BME280;75177;43.832;5.974;2024-02-04T03:44:03;95946.25;;;9.32;74.63
84914;BME280;75177;43.832;5.974;2024-02-04T03:46:28;95948.72;;;9.43;75.52
84914;BME280;75177;43.832;5.974;2024-02-04T03:48:53;95931.13;;;9.23;74.77
84914;BME280;75177;43.832;5.974;2024-02-04T03:51:19;95943.19;;;9.18;74.86
84914;BME280;75177;43.832;5.974;2024-02-04T03:53:45;95949.50;;;9.17;74.41
84914;BME280;75177;43.832;5.974;2024-02-04T03:56:11;95949.38;;;9.09;74.72
84914;BME280;75177;43.832;5.974;2024-02-04T03:58:36;95935.38;;;8.97;74.91
84914;BME280;75177;43.832;5.974;2024-02-04T04:01:02;95936.78;;;9.01;74.13
84914;BME280;75177;43.832;5.974;2024-02-04T04:03:27;95944.63;;;8.93;74.05
84914;BME280;75177;43.832;5.974;2024-02-04T04:05:53;95937.75;;;8.90;73.66
84914;BME280;75177;43.832;5.974;2024-02-04T04:08:19;95948.69;;;8.78;74.79
84914;BME280;75177;43.832;5.974;2024-02-04T04:10:45;95944.91;;;8.71;75.49
84914;BME280;75177;43.832;5.974;2024-02-04T04:13:10;95944.63;;;8.74;75.52
84914;BME280;75177;43.832;5.974;2024-02-04T04:15:36;95909.06;;;8.56;75.80
84914;BME280;75177;43.832;5.974;2024-02-04T04:18:02;95937.47;;;8.65;75.37
84914;BME280;75177;43.832;5.974;2024-02-04T04:20:27;95940.44;;;8.62;75.95
84914;BME280;75177;43.832;5.974;2024-02-04T04:22:53;95941.81;;;8.66;75.50
84914;BME280;75177;43.832;5.974;2024-02-04T04:25:18;95938.16;;;8.67;75.78
84914;BME280;75177;43.832;5.974;2024-02-04T04:27:44;95935.94;;;8.72;75.69
84914;BME280;75177;43.832;5.974;2024-02-04T04:30:09;95933.69;;;8.77;75.18
84914;BME280;75177;43.832;5.974;2024-02-04T04:32:35;95921.94;;;8.70;75.55
84914;BME280;75177;43.832;5.974;2024-02-04T04:35:01;95932.03;;;8.76;76.82
84914;BME280;75177;43.832;5.974;2024-02-04T04:37:26;95925.59;;;8.78;76.45
84914;BME280;75177;43.832;5.974;2024-02-04T04:39:52;95931.03;;;8.77;75.74
84914;BME280;75177;43.832;5.974;2024-02-04T04:42:17;95913.50;;;8.65;76.29
84914;BME280;75177;43.832;5.974;2024-02-04T04:44:43;95939.28;;;8.55;76.29
84914;BME280;75177;43.832;5.974;2024-02-04T04:47:08;95925.03;;;8.56;75.74
84914;BME280;75177;43.832;5.974;2024-02-04T04:49:34;95940.41;;;8.71;74.80
84914;BME280;75177;43.832;5.974;2024-02-04T04:51:59;95929.22;;;8.77;74.61
84914;BME280;75177;43.832;5.974;2024-02-04T04:54:25;95928.34;;;8.77;74.78
84914;BME280;75177;43.832;5.974;2024-02-04T04:56:50;95934.94;;;8.73;75.28
84914;BME280;75177;43.832;5.974;2024-02-04T04:59:16;95941.25;;;8.81;75.14
84914;BME280;75177;43.832;5.974;2024-02-04T05:01:46;95937.03;;;8.79;74.83
84914;BME280;75177;43.832;5.974;2024-02-04T05:04:12;95930.19;;;8.67;75.55
84914;BME280;75177;43.832;5.974;2024-02-04T05:06:37;95923.34;;;8.74;75.74
84914;BME280;75177;43.832;5.974;2024-02-04T05:09:03;95897.25;;;8.58;76.92
84914;BME280;75177;43.832;5.974;2024-02-04T05:11:28;95927.53;;;8.67;75.67
84914;BME280;75177;43.832;5.974;2024-02-04T05:13:54;95921.22;;;8.68;75.50
84914;BME280;75177;43.832;5.974;2024-02-04T05:16:20;95924.19;;;8.74;74.70
84914;BME280;75177;43.832;5.974;2024-02-04T05:18:45;95921.63;;;8.73;74.55
84914;BME280;75177;43.832;5.974;2024-02-04T05:21:11;95914.94;;;8.78;75.11
84914;BME280;75177;43.832;5.974;2024-02-04T05:23:36;95921.22;;;8.87;75.50
84914;BME280;75177;43.832;5.974;2024-02-04T05:26:05;95922.47;;;8.83;75.27
84914;BME280;75177;43.832;5.974;2024-02-04T05:28:31;95920.25;;;8.78;74.96
84914;BME280;75177;43.832;5.974;2024-02-04T05:30:57;95923.59;;;8.90;74.86
84914;BME280;75177;43.832;5.974;2024-02-04T05:33:22;95911.13;;;8.81;74.84
84914;BME280;75177;43.832;5.974;2024-02-04T05:35:48;95922.91;;;8.88;74.55
84914;BME280;75177;43.832;5.974;2024-02-04T05:38:13;95919.09;;;8.81;74.19
84914;BME280;75177;43.832;5.974;2024-02-04T05:40:38;95919.69;;;8.84;73.94
84914;BME280;75177;43.832;5.974;2024-02-04T05:43:04;95925.56;;;8.88;73.57
84914;BME280;75177;43.832;5.974;2024-02-04T05:45:35;95921.94;;;8.89;73.63
84914;BME280;75177;43.832;5.974;2024-02-04T05:48:00;95920.25;;;8.88;72.98
84914;BME280;75177;43.832;5.974;2024-02-04T05:50:26;95932.59;;;8.89;72.46
84914;BME280;75177;43.832;5.974;2024-02-04T05:52:51;95930.31;;;8.94;72.62
84914;BME280;75177;43.832;5.974;2024-02-04T05:55:17;95930.06;;;8.97;71.52
84914;BME280;75177;43.832;5.974;2024-02-04T05:57:42;95920.25;;;8.88;70.80
84914;BME280;75177;43.832;5.974;2024-02-04T06:00:09;95924.16;;;8.84;71.06
84914;BME280;75177;43.832;5.974;2024-02-04T06:02:35;95946.28;;;8.94;70.82
84914;BME280;75177;43.832;5.974;2024-02-04T06:05:01;95937.59;;;8.92;69.80
84914;BME280;75177;43.832;5.974;2024-02-04T06:07:26;95940.41;;;9.00;69.21
84914;BME280;75177;43.832;5.974;2024-02-04T06:09:52;95937.63;;;9.02;68.80
84914;BME280;75177;43.832;5.974;2024-02-04T06:12:17;95924.28;;;8.92;68.54
84914;BME280;75177;43.832;5.974;2024-02-04T06:14:43;95928.34;;;8.96;69.50
84914;BME280;75177;43.832;5.974;2024-02-04T06:17:08;95921.09;;;8.88;69.43
84914;BME280;75177;43.832;5.974;2024-02-04T06:19:34;95940.41;;;9.00;69.31
84914;BME280;75177;43.832;5.974;2024-02-04T06:22:00;95934.22;;;9.00;69.75
84914;BME280;75177;43.832;5.974;2024-02-04T06:24:26;95926.38;;;8.98;69.29
84914;BME280;75177;43.832;5.974;2024-02-04T06:26:51;95928.78;;;9.01;68.29
84914;BME280;75177;43.832;5.974;2024-02-04T06:29:16;95933.97;;;8.93;68.35
84914;BME280;75177;43.832;5.974;2024-02-04T06:31:46;95948.13;;;9.03;67.71
84914;BME280;75177;43.832;5.974;2024-02-04T06:34:12;95951.88;;;9.10;67.11
84914;BME280;75177;43.832;5.974;2024-02-04T06:36:38;95951.06;;;9.10;67.25
84914;BME280;75177;43.832;5.974;2024-02-04T06:39:03;95942.38;;;8.98;67.10
84914;BME280;75177;43.832;5.974;2024-02-04T06:41:29;95960.44;;;9.04;66.91
84914;BME280;75177;43.832;5.974;2024-02-04T06:43:54;95962.28;;;9.13;66.80
84914;BME280;75177;43.832;5.974;2024-02-04T06:46:26;95952.75;;;9.20;66.42
84914;BME280;75177;43.832;5.974;2024-02-04T06:48:52;95954.56;;;9.20;66.05
84914;BME280;75177;43.832;5.974;2024-02-04T06:51:19;95953.00;;;9.17;66.01
84914;BME280;75177;43.832;5.974;2024-02-04T06:53:44;95955.41;;;9.20;66.29
84914;BME280;75177;43.832;5.974;2024-02-04T06:56:10;95962.41;;;9.12;66.76
84914;BME280;75177;43.832;5.974;2024-02-04T06:58:42;95966.59;;;9.14;67.77
84914;BME280;75177;43.832;5.974;2024-02-04T07:01:08;95971.53;;;9.09;68.90
84914;BME280;75177;43.832;5.974;2024-02-04T07:03:34;95976.00;;;9.09;70.26
84914;BME280;75177;43.832;5.974;2024-02-04T07:06:00;95963.81;;;9.06;69.92
84914;BME280;75177;43.832;5.974;2024-02-04T07:08:25;95966.78;;;9.03;69.57
84914;BME280;75177;43.832;5.974;2024-02-04T07:10:51;95963.94;;;9.05;69.37
84914;BME280;75177;43.832;5.974;2024-02-04T07:13:17;95977.97;;;9.07;69.24
84914;BME280;75177;43.832;5.974;2024-02-04T07:15:42;95968.44;;;9.04;69.48
84914;BME280;75177;43.832;5.974;2024-02-04T07:18:08;95968.44;;;9.04;70.00
84914;BME280;75177;43.832;5.974;2024-02-04T07:20:33;95965.50;;;9.07;70.30
84914;BME280;75177;43.832;5.974;2024-02-04T07:22:59;95962.84;;;9.07;70.12
84914;BME280;75177;43.832;5.974;2024-02-04T07:25:24;95963.09;;;9.04;70.65
84914;BME280;75177;43.832;5.974;2024-02-04T07:27:50;95956.38;;;9.00;70.59
84914;BME280;75177;43.832;5.974;2024-02-04T07:30:15;95957.38;;;8.99;70.87
84914;BME280;75177;43.832;5.974;2024-02-04T07:32:41;95971.78;;;9.06;71.05
84914;BME280;75177;43.832;5.974;2024-02-04T07:35:06;95963.22;;;9.12;71.10
84914;BME280;75177;43.832;5.974;2024-02-04T07:37:34;95963.22;;;9.12;70.31
84914;BME280;75177;43.832;5.974;2024-02-04T07:39:59;95970.09;;;9.15;69.21
84914;BME280;75177;43.832;5.974;2024-02-04T07:42:26;95976.56;;;9.12;68.37
84914;BME280;75177;43.832;5.974;2024-02-04T07:44:51;95976.56;;;9.12;69.08
84914;BME280;75177;43.832;5.974;2024-02-04T07:47:16;95972.38;;;9.10;68.78
84914;BME280;75177;43.832;5.974;2024-02-04T07:49:42;95972.78;;;9.15;69.77
84914;BME280;75177;43.832;5.974;2024-02-04T07:52:07;95987.91;;;9.14;70.51
84914;BME280;75177;43.832;5.974;2024-02-04T07:54:33;95983.16;;;9.08;70.97
84914;BME280;75177;43.832;5.974;2024-02-04T07:56:59;95994.09;;;9.15;70.77
84914;BME280;75177;43.832;5.974;2024-02-04T07:59:25;95991.16;;;9.18;69.74
84914;BME280;75177;43.832;5.974;2024-02-04T08:01:50;95986.66;;;9.18;69.59
84914;BME280;75177;43.832;5.974;2024-02-04T08:04:15;95993.41;;;9.22;69.87
84914;BME280;75177;43.832;5.974;2024-02-04T08:06:41;95976.00;;;9.18;70.44
84914;BME280;75177;43.832;5.974;2024-02-04T08:09:06;95981.59;;;9.25;70.60
84914;BME280;75177;43.832;5.974;2024-02-04T08:11:32;95988.63;;;9.26;69.99
84914;BME280;75177;43.832;5.974;2024-02-04T08:13:57;95982.44;;;9.25;70.00
84914;BME280;75177;43.832;5.974;2024-02-04T08:16:23;95986.50;;;9.29;70.58
84914;BME280;75177;43.832;5.974;2024-02-04T08:18:48;95994.22;;;9.32;70.49
84914;BME280;75177;43.832;5.974;2024-02-04T08:21:14;95985.53;;;9.30;72.32
84914;BME280;75177;43.832;5.974;2024-02-04T08:23:39;95985.94;;;9.35;73.15
84914;BME280;75177;43.832;5.974;2024-02-04T08:26:05;95995.31;;;9.39;74.06
84914;BME280;75177;43.832;5.974;2024-02-04T08:28:31;95999.38;;;9.43;74.67
84914;BME280;75177;43.832;5.974;2024-02-04T08:30:56;95996.13;;;9.49;74.25
84914;BME280;75177;43.832;5.974;2024-02-04T08:33:22;95989.84;;;9.50;74.07
84914;BME280;75177;43.832;5.974;2024-02-04T08:35:50;95991.09;;;9.46;73.89
84914;BME280;75177;43.832;5.974;2024-02-04T08:38:15;95982.09;;;9.47;73.93
84914;BME280;75177;43.832;5.974;2024-02-04T08:40:41;95991.53;;;9.51;74.13
84914;BME280;75177;43.832;5.974;2024-02-04T08:43:06;95980.44;;;9.46;74.72
84914;BME280;75177;43.832;5.974;2024-02-04T08:45:32;95974.56;;;9.43;75.58
84914;BME280;75177;43.832;5.974;2024-02-04T08:47:57;95993.19;;;9.52;76.22
84914;BME280;75177;43.832;5.974;2024-02-04T08:50:22;95995.28;;;9.58;75.62
84914;BME280;75177;43.832;5.974;2024-02-04T08:52:48;95986.59;;;9.56;76.10
84914;BME280;75177;43.832;5.974;2024-02-04T08:55:13;95999.75;;;9.67;76.11
84914;BME280;75177;43.832;5.974;2024-02-04T08:57:39;96002.28;;;9.69;76.31
84914;BME280;75177;43.832;5.974;2024-02-04T09:00:05;95999.47;;;9.70;76.20
84914;BME280;75177;43.832;5.974;2024-02-04T09:02:34;96007.19;;;9.73;76.29
84914;BME280;75177;43.832;5.974;2024-02-04T09:05:00;96009.53;;;9.77;76.56
84914;BME280;75177;43.832;5.974;2024-02-04T09:07:26;96007.56;;;9.79;75.58
84914;BME280;75177;43.832;5.974;2024-02-04T09:09:51;96006.72;;;9.88;74.29
84914;BME280;75177;43.832;5.974;2024-02-04T09:12:17;96004.19;;;9.86;74.32
84914;BME280;75177;43.832;5.974;2024-02-04T09:14:43;95994.25;;;9.79;74.46
84914;BME280;75177;43.832;5.974;2024-02-04T09:17:09;96005.03;;;9.87;74.77
84914;BME280;75177;43.832;5.974;2024-02-04T09:19:35;96013.75;;;9.89;75.02
84914;BME280;75177;43.832;5.974;2024-02-04T09:22:01;96011.78;;;9.91;74.62
84914;BME280;75177;43.832;5.974;2024-02-04T09:24:27;96014.13;;;9.94;75.30
84914;BME280;75177;43.832;5.974;2024-02-04T09:26:53;96002.75;;;9.92;75.22
84914;BME280;75177;43.832;5.974;2024-02-04T09:29:19;96014.53;;;9.99;75.11
84914;BME280;75177;43.832;5.974;2024-02-04T09:31:44;96012.56;;;10.01;74.71
84914;BME280;75177;43.832;5.974;2024-02-04T09:34:10;96018.44;;;10.04;74.62
84914;BME280;75177;43.832;5.974;2024-02-04T09:36:35;96026.00;;;10.09;74.43
84914;BME280;75177;43.832;5.974;2024-02-04T09:39:01;96021.41;;;10.11;73.53
84914;BME280;75177;43.832;5.974;2024-02-04T09:41:26;96015.50;;;10.07;73.84
84914;BME280;75177;43.832;5.974;2024-02-04T09:43:52;96027.97;;;10.16;73.85
84914;BME280;75177;43.832;5.974;2024-02-04T09:46:18;96026.44;;;10.14;73.39
84914;BME280;75177;43.832;5.974;2024-02-04T09:48:47;96019.16;;;10.16;72.57
84914;BME280;75177;43.832;5.974;2024-02-04T09:51:14;96026.94;;;10.27;73.11
84914;BME280;75177;43.832;5.974;2024-02-04T09:53:43;96037.19;;;10.31;74.65
84914;BME280;75177;43.832;5.974;2024-02-04T09:56:10;96031.00;;;10.31;75.32
84914;BME280;75177;43.832;5.974;2024-02-04T09:58:37;96041.94;;;10.37;76.06
84914;BME280;75177;43.832;5.974;2024-02-04T10:01:04;96038.28;;;10.38;76.91
84914;BME280;75177;43.832;5.974;2024-02-04T10:03:30;96030.41;;;10.37;78.34
84914;BME280;75177;43.832;5.974;2024-02-04T10:05:56;96051.84;;;10.45;79.38
84914;BME280;75177;43.832;5.974;2024-02-04T10:08:22;96048.06;;;10.47;80.36
84914;BME280;75177;43.832;5.974;2024-02-04T10:10:47;96052.28;;;10.50;80.19
84914;BME280;75177;43.832;5.974;2024-02-04T10:13:13;96059.31;;;10.51;80.14
84914;BME280;75177;43.832;5.974;2024-02-04T10:15:38;96056.03;;;10.57;79.41
84914;BME280;75177;43.832;5.974;2024-02-04T10:18:07;96059.09;;;10.62;78.66
84914;BME280;75177;43.832;5.974;2024-02-04T10:20:33;96057.28;;;10.63;77.66
84914;BME280;75177;43.832;5.974;2024-02-04T10:22:59;96054.44;;;10.64;77.54
84914;BME280;75177;43.832;5.974;2024-02-04T10:25:25;96069.59;;;10.73;78.61
84914;BME280;75177;43.832;5.974;2024-02-04T10:27:52;96065.34;;;10.80;79.76
84914;BME280;75177;43.832;5.974;2024-02-04T10:30:21;96070.53;;;10.82;81.12
84914;BME280;75177;43.832;5.974;2024-02-04T10:32:53;96072.06;;;10.84;82.25
84914;BME280;75177;43.832;5.974;2024-02-04T10:35:23;96064.41;;;10.89;82.19
84914;BME280;75177;43.832;5.974;2024-02-04T10:37:49;96063.44;;;10.90;82.68
84914;BME280;75177;43.832;5.974;2024-02-04T10:40:15;96064.13;;;10.92;82.32
84914;BME280;75177;43.832;5.974;2024-02-04T10:42:43;96064.50;;;10.97;81.15
84914;BME280;75177;43.832;5.974;2024-02-04T10:45:10;96068.25;;;11.04;80.88
84914;BME280;75177;43.832;5.974;2024-02-04T10:47:39;96064.00;;;11.11;79.87
84914;BME280;75177;43.832;5.974;2024-02-04T10:50:06;96061.72;;;11.16;80.79
84914;BME280;75177;43.832;5.974;2024-02-04T10:52:39;96058.06;;;11.17;80.82
84914;BME280;75177;43.832;5.974;2024-02-04T10:55:09;96065.81;;;11.28;79.80
84914;BME280;75177;43.832;5.974;2024-02-04T10:57:35;96067.19;;;11.32;79.01
84914;BME280;75177;43.832;5.974;2024-02-04T11:00:02;96060.88;;;11.33;78.53
84914;BME280;75177;43.832;5.974;2024-02-04T11:02:34;96058.19;;;11.33;78.50
84914;BME280;75177;43.832;5.974;2024-02-04T11:05:00;96052.53;;;11.37;78.72
84914;BME280;75177;43.832;5.974;2024-02-04T11:07:32;96053.09;;;11.40;79.23
84914;BME280;75177;43.832;5.974;2024-02-04T11:09:58;96049.25;;;11.43;80.03
84914;BME280;75177;43.832;5.974;2024-02-04T11:12:24;96053.00;;;11.50;80.53
84914;BME280;75177;43.832;5.974;2024-02-04T11:14:53;96042.63;;;11.47;79.50
84914;BME280;75177;43.832;5.974;2024-02-04T11:23:55;96051.47;;;11.65;80.81
84914;BME280;75177;43.832;5.974;2024-02-04T11:26:03;96027.69;;;11.62;80.28
84914;BME280;75177;43.832;5.974;2024-02-04T11:28:31;96033.13;;;11.70;79.15
84914;BME280;75177;43.832;5.974;2024-02-04T11:30:56;96040.91;;;11.81;78.89
84914;BME280;75177;43.832;5.974;2024-02-04T11:33:22;96045.84;;;11.93;79.55
84914;BME280;75177;43.832;5.974;2024-02-04T11:36:12;96044.06;;;12.02;80.82
84914;BME280;75177;43.832;5.974;2024-02-04T11:38:39;96045.44;;;12.06;82.38
84914;BME280;75177;43.832;5.974;2024-02-04T11:41:05;96043.44;;;12.08;83.22
84914;BME280;75177;43.832;5.974;2024-02-04T11:43:36;96032.09;;;12.14;82.08
84914;BME280;75177;43.832;5.974;2024-02-04T11:46:04;96033.34;;;12.28;82.62
84914;BME280;75177;43.832;5.974;2024-02-04T11:48:31;96038.56;;;12.37;81.53
84914;BME280;75177;43.832;5.974;2024-02-04T11:50:58;96035.28;;;12.51;79.44
84914;BME280;75177;43.832;5.974;2024-02-04T11:53:28;96038.34;;;12.56;79.96
84914;BME280;75177;43.832;5.974;2024-02-04T11:55:57;96037.34;;;12.65;78.99
84914;BME280;75177;43.832;5.974;2024-02-04T11:58:23;96023.63;;;12.60;79.88
84914;BME280;75177;43.832;5.974;2024-02-04T12:00:51;96032.84;;;12.66;79.54
84914;BME280;75177;43.832;5.974;2024-02-04T12:03:28;96023.31;;;12.71;79.93
84914;BME280;75177;43.832;5.974;2024-02-04T12:05:55;96019.19;;;12.93;73.80
84914;BME280;75177;43.832;5.974;2024-02-04T12:08:20;96012.31;;;12.82;72.87
84914;BME280;75177;43.832;5.974;2024-02-04T12:10:46;96025.41;;;12.93;71.11
84914;BME280;75177;43.832;5.974;2024-02-04T12:13:13;96010.00;;;13.04;64.17
84914;BME280;75177;43.832;5.974;2024-02-04T12:15:39;96007.56;;;13.10;63.21
84914;BME280;75177;43.832;5.974;2024-02-04T12:18:07;96004.69;;;13.20;64.10
84914;BME280;75177;43.832;5.974;2024-02-04T12:20:32;96014.94;;;13.32;62.48
84914;BME280;75177;43.832;5.974;2024-02-04T12:22:58;95999.69;;;13.33;62.93
84914;BME280;75177;43.832;5.974;2024-02-04T12:25:23;96001.03;;;13.29;65.01
84914;BME280;75177;43.832;5.974;2024-02-04T12:27:52;95992.50;;;13.41;67.26
84914;BME280;75177;43.832;5.974;2024-02-04T12:30:17;95983.78;;;13.39;68.93
84914;BME280;75177;43.832;5.974;2024-02-04T12:32:43;96006.75;;;13.58;70.33
84914;BME280;75177;43.832;5.974;2024-02-04T12:35:13;95997.84;;;13.65;70.27
84914;BME280;75177;43.832;5.974;2024-02-04T12:37:38;95989.97;;;13.72;70.08
84914;BME280;75177;43.832;5.974;2024-02-04T12:40:21;95993.13;;;13.84;69.06
84914;BME280;75177;43.832;5.974;2024-02-04T12:43:01;95983.72;;;14.04;67.02
84914;BME280;75177;43.832;5.974;2024-02-04T12:45:27;95978.84;;;14.07;66.52
84914;BME280;75177;43.832;5.974;2024-02-04T12:47:57;95981.16;;;14.18;66.62
84914;BME280;75177;43.832;5.974;2024-02-04T12:50:23;95995.75;;;14.32;65.43
84914;BME280;75177;43.832;5.974;2024-02-04T12:52:50;95980.81;;;14.37;65.51
84914;BME280;75177;43.832;5.974;2024-02-04T12:55:27;95988.75;;;14.62;62.88
84914;BME280;75177;43.832;5.974;2024-02-04T12:58:05;95987.22;;;14.67;62.23
84914;BME280;75177;43.832;5.974;2024-02-04T13:00:36;95984.00;;;14.72;62.26
84914;BME280;75177;43.832;5.974;2024-02-04T13:03:03;95980.69;;;14.92;60.93
84914;BME280;75177;43.832;5.974;2024-02-04T13:05:28;95974.47;;;14.92;61.16
84914;BME280;75177;43.832;5.974;2024-02-04T13:07:57;95980.06;;;15.13;60.65
84914;BME280;75177;43.832;5.974;2024-02-04T13:10:27;95975.66;;;15.20;60.99
84914;BME280;75177;43.832;5.974;2024-02-04T13:13:07;95969.63;;;15.18;62.39
84914;BME280;75177;43.832;5.974;2024-02-04T13:15:39;95977.84;;;15.47;59.76
84914;BME280;75177;43.832;5.974;2024-02-04T13:18:05;95974.03;;;15.56;59.23